sensor_id;sensor_type;location;lat;lon;timestamp;temperature;humidity
21493;DHT22;10908;50.690;4.400;2022-12-05T00:01:27;2.00;92.80
21493;DHT22;10908;50.690;4.400;2022-12-05T00:03:55;1.80;92.80
21493;DHT22;10908;50.690;4.400;2022-12-05T00:06:23;1.90;92.80
21493;DHT22;10908;50.690;4.400;2022-12-05T00:08:49;2.10;92.90
21493;DHT22;10908;50.690;4.400;2022-12-05T00:11:18;2.10;92.90
21493;DHT22;10908;50.690;4.400;2022-12-05T00:13:45;2.10;92.70
21493;DHT22;10908;50.690;4.400;2022-12-05T00:16:16;2.00;92.60
21493;DHT22;10908;50.690;4.400;2022-12-05T00:18:42;1.90;92.50
21493;DHT22;10908;50.690;4.400;2022-12-05T00:21:14;1.80;92.50
21493;DHT22;10908;50.690;4.400;2022-12-05T00:23:40;1.90;92.50
21493;DHT22;10908;50.690;4.400;2022-12-05T00:26:06;1.90;92.60
21493;DHT22;10908;50.690;4.400;2022-12-05T00:28:32;1.90;92.50
21493;DHT22;10908;50.690;4.400;2022-12-05T00:31:06;2.00;92.50
21493;DHT22;10908;50.690;4.400;2022-12-05T00:33:32;2.00;92.60
21493;DHT22;10908;50.690;4.400;2022-12-05T00:36:09;2.00;92.50
21493;DHT22;10908;50.690;4.400;2022-12-05T00:38:35;2.10;92.50
21493;DHT22;10908;50.690;4.400;2022-12-05T00:41:02;2.10;92.50
21493;DHT22;10908;50.690;4.400;2022-12-05T00:43:28;2.20;92.40
21493;DHT22;10908;50.690;4.400;2022-12-05T00:45:54;2.20;92.30
21493;DHT22;10908;50.690;4.400;2022-12-05T00:48:19;2.20;92.20
21493;DHT22;10908;50.690;4.400;2022-12-05T00:50:45;2.20;92.10
21493;DHT22;10908;50.690;4.400;2022-12-05T00:53:11;2.20;92.00
21493;DHT22;10908;50.690;4.400;2022-12-05T00:55:36;2.30;92.00
21493;DHT22;10908;50.690;4.400;2022-12-05T00:58:03;2.20;91.80
21493;DHT22;10908;50.690;4.400;2022-12-05T01:00:28;2.10;91.70
21493;DHT22;10908;50.690;4.400;2022-12-05T01:02:54;2.20;91.60
21493;DHT22;10908;50.690;4.400;2022-12-05T01:05:20;2.20;91.50
21493;DHT22;10908;50.690;4.400;2022-12-05T01:07:45;2.10;91.40
21493;DHT22;10908;50.690;4.400;2022-12-05T01:10:11;2.30;91.40
21493;DHT22;10908;50.690;4.400;2022-12-05T01:12:37;2.30;91.40
21493;DHT22;10908;50.690;4.400;2022-12-05T01:15:03;2.20;91.30
21493;DHT22;10908;50.690;4.400;2022-12-05T01:17:29;2.20;91.20
21493;DHT22;10908;50.690;4.400;2022-12-05T01:19:54;2.20;91.20
21493;DHT22;10908;50.690;4.400;2022-12-05T01:22:21;2.20;91.10
21493;DHT22;10908;50.690;4.400;2022-12-05T01:24:46;2.10;91.00
21493;DHT22;10908;50.690;4.400;2022-12-05T01:27:12;2.30;91.00
21493;DHT22;10908;50.690;4.400;2022-12-05T01:29:37;2.20;91.00
21493;DHT22;10908;50.690;4.400;2022-12-05T01:32:03;2.20;91.00
21493;DHT22;10908;50.690;4.400;2022-12-05T01:34:29;2.20;90.90
21493;DHT22;10908;50.690;4.400;2022-12-05T01:36:55;2.20;90.80
21493;DHT22;10908;50.690;4.400;2022-12-05T01:39:20;2.30;90.80
21493;DHT22;10908;50.690;4.400;2022-12-05T01:41:48;2.30;90.80
21493;DHT22;10908;50.690;4.400;2022-12-05T01:46:46;2.20;90.70
21493;DHT22;10908;50.690;4.400;2022-12-05T01:49:35;2.20;90.70
21493;DHT22;10908;50.690;4.400;2022-12-05T01:52:12;2.10;90.70
21493;DHT22;10908;50.690;4.400;2022-12-05T01:54:38;2.20;90.60
21493;DHT22;10908;50.690;4.400;2022-12-05T01:57:07;2.20;90.60
21493;DHT22;10908;50.690;4.400;2022-12-05T01:59:37;2.20;90.60
21493;DHT22;10908;50.690;4.400;2022-12-05T02:02:04;2.30;90.60
21493;DHT22;10908;50.690;4.400;2022-12-05T02:04:31;2.20;90.50
21493;DHT22;10908;50.690;4.400;2022-12-05T02:07:00;2.20;90.40
21493;DHT22;10908;50.690;4.400;2022-12-05T02:09:26;2.20;90.50
21493;DHT22;10908;50.690;4.400;2022-12-05T02:11:57;2.30;90.40
21493;DHT22;10908;50.690;4.400;2022-12-05T02:14:58;2.30;90.40
21493;DHT22;10908;50.690;4.400;2022-12-05T02:29:47;2.30;90.40
21493;DHT22;10908;50.690;4.400;2022-12-05T02:37:43;2.40;89.80
21493;DHT22;10908;50.690;4.400;2022-12-05T02:42:59;2.20;89.70
21493;DHT22;10908;50.690;4.400;2022-12-05T02:45:27;2.10;89.70
21493;DHT22;10908;50.690;4.400;2022-12-05T02:47:56;2.20;89.80
21493;DHT22;10908;50.690;4.400;2022-12-05T02:50:26;2.10;89.80
21493;DHT22;10908;50.690;4.400;2022-12-05T02:52:55;2.20;89.80
21493;DHT22;10908;50.690;4.400;2022-12-05T02:55:23;2.20;89.90
21493;DHT22;10908;50.690;4.400;2022-12-05T02:57:54;2.10;89.80
21493;DHT22;10908;50.690;4.400;2022-12-05T03:00:22;2.30;89.70
21493;DHT22;10908;50.690;4.400;2022-12-05T03:02:51;2.20;89.70
21493;DHT22;10908;50.690;4.400;2022-12-05T03:05:43;2.10;89.60
21493;DHT22;10908;50.690;4.400;2022-12-05T03:08:15;2.20;89.60
21493;DHT22;10908;50.690;4.400;2022-12-05T03:10:44;2.10;89.60
21493;DHT22;10908;50.690;4.400;2022-12-05T03:13:15;1.90;89.80
21493;DHT22;10908;50.690;4.400;2022-12-05T03:15:47;1.90;89.90
21493;DHT22;10908;50.690;4.400;2022-12-05T03:20:55;1.90;90.30
21493;DHT22;10908;50.690;4.400;2022-12-05T03:23:37;2.10;90.20
21493;DHT22;10908;50.690;4.400;2022-12-05T03:26:30;2.30;90.30
21493;DHT22;10908;50.690;4.400;2022-12-05T03:35:10;2.00;90.10
21493;DHT22;10908;50.690;4.400;2022-12-05T03:37:57;2.30;90.10
21493;DHT22;10908;50.690;4.400;2022-12-05T03:43:06;2.40;89.90
21493;DHT22;10908;50.690;4.400;2022-12-05T03:45:47;2.50;89.80
21493;DHT22;10908;50.690;4.400;2022-12-05T03:48:14;2.50;89.60
21493;DHT22;10908;50.690;4.400;2022-12-05T03:50:45;2.70;89.20
21493;DHT22;10908;50.690;4.400;2022-12-05T03:53:43;2.50;88.90
21493;DHT22;10908;50.690;4.400;2022-12-05T03:56:33;2.40;88.80
21493;DHT22;10908;50.690;4.400;2022-12-05T03:59:14;2.40;88.90
21493;DHT22;10908;50.690;4.400;2022-12-05T04:01:42;2.40;89.00
21493;DHT22;10908;50.690;4.400;2022-12-05T04:04:13;2.20;89.10
21493;DHT22;10908;50.690;4.400;2022-12-05T04:06:42;2.30;89.20
21493;DHT22;10908;50.690;4.400;2022-12-05T04:09:25;2.50;89.20
21493;DHT22;10908;50.690;4.400;2022-12-05T04:12:00;2.40;89.10
21493;DHT22;10908;50.690;4.400;2022-12-05T04:14:36;2.50;89.20
21493;DHT22;10908;50.690;4.400;2022-12-05T04:17:11;2.30;89.10
21493;DHT22;10908;50.690;4.400;2022-12-05T04:20:05;2.30;89.10
21493;DHT22;10908;50.690;4.400;2022-12-05T04:22:53;2.40;89.10
21493;DHT22;10908;50.690;4.400;2022-12-05T04:25:19;2.60;89.10
21493;DHT22;10908;50.690;4.400;2022-12-05T04:30:51;2.70;88.70
21493;DHT22;10908;50.690;4.400;2022-12-05T04:33:30;2.50;88.60
21493;DHT22;10908;50.690;4.400;2022-12-05T04:39:03;2.50;88.60
21493;DHT22;10908;50.690;4.400;2022-12-05T04:41:40;2.50;88.60
21493;DHT22;10908;50.690;4.400;2022-12-05T04:44:11;2.30;88.80
21493;DHT22;10908;50.690;4.400;2022-12-05T04:46:41;2.10;88.90
21493;DHT22;10908;50.690;4.400;2022-12-05T04:49:10;2.00;89.20
21493;DHT22;10908;50.690;4.400;2022-12-05T04:51:37;1.90;89.50
21493;DHT22;10908;50.690;4.400;2022-12-05T04:54:14;1.90;90.00
21493;DHT22;10908;50.690;4.400;2022-12-05T04:56:43;2.10;90.20
21493;DHT22;10908;50.690;4.400;2022-12-05T04:59:11;2.10;90.30
21493;DHT22;10908;50.690;4.400;2022-12-05T05:01:41;2.00;90.40
21493;DHT22;10908;50.690;4.400;2022-12-05T05:04:16;1.90;90.50
21493;DHT22;10908;50.690;4.400;2022-12-05T05:06:43;2.00;90.60
21493;DHT22;10908;50.690;4.400;2022-12-05T05:09:09;2.10;90.70
21493;DHT22;10908;50.690;4.400;2022-12-05T05:11:36;2.20;90.70
21493;DHT22;10908;50.690;4.400;2022-12-05T05:14:02;2.20;90.70
21493;DHT22;10908;50.690;4.400;2022-12-05T05:16:38;2.20;90.70
21493;DHT22;10908;50.690;4.400;2022-12-05T05:19:05;2.20;90.70
21493;DHT22;10908;50.690;4.400;2022-12-05T05:21:37;2.20;90.50
21493;DHT22;10908;50.690;4.400;2022-12-05T05:24:04;2.20;90.50
21493;DHT22;10908;50.690;4.400;2022-12-05T05:26:34;2.20;90.50
21493;DHT22;10908;50.690;4.400;2022-12-05T05:29:00;2.30;90.50
21493;DHT22;10908;50.690;4.400;2022-12-05T05:31:27;2.30;90.50
21493;DHT22;10908;50.690;4.400;2022-12-05T05:33:54;2.20;90.40
21493;DHT22;10908;50.690;4.400;2022-12-05T05:36:22;2.10;90.40
21493;DHT22;10908;50.690;4.400;2022-12-05T05:38:50;2.10;90.50
21493;DHT22;10908;50.690;4.400;2022-12-05T05:41:31;2.10;90.60
21493;DHT22;10908;50.690;4.400;2022-12-05T05:43:58;2.10;90.80
21493;DHT22;10908;50.690;4.400;2022-12-05T05:46:26;2.20;90.90
21493;DHT22;10908;50.690;4.400;2022-12-05T05:48:53;2.10;91.00
21493;DHT22;10908;50.690;4.400;2022-12-05T05:51:20;2.00;91.20
21493;DHT22;10908;50.690;4.400;2022-12-05T05:53:46;2.00;91.40
21493;DHT22;10908;50.690;4.400;2022-12-05T05:56:17;2.10;91.50
21493;DHT22;10908;50.690;4.400;2022-12-05T05:58:44;2.10;91.60
21493;DHT22;10908;50.690;4.400;2022-12-05T06:01:18;2.10;91.70
21493;DHT22;10908;50.690;4.400;2022-12-05T06:03:46;2.30;91.80
21493;DHT22;10908;50.690;4.400;2022-12-05T06:06:13;2.30;91.70
21493;DHT22;10908;50.690;4.400;2022-12-05T06:08:41;2.30;91.70
21493;DHT22;10908;50.690;4.400;2022-12-05T06:11:13;2.40;91.70
21493;DHT22;10908;50.690;4.400;2022-12-05T06:13:39;2.30;91.80
21493;DHT22;10908;50.690;4.400;2022-12-05T06:16:09;2.20;91.80
21493;DHT22;10908;50.690;4.400;2022-12-05T06:18:36;2.30;91.80
21493;DHT22;10908;50.690;4.400;2022-12-05T06:21:02;2.30;91.80
21493;DHT22;10908;50.690;4.400;2022-12-05T06:23:28;2.30;91.70
21493;DHT22;10908;50.690;4.400;2022-12-05T06:25:55;2.30;91.80
21493;DHT22;10908;50.690;4.400;2022-12-05T06:28:23;2.30;91.70
21493;DHT22;10908;50.690;4.400;2022-12-05T06:30:50;2.40;91.80
21493;DHT22;10908;50.690;4.400;2022-12-05T06:33:16;2.30;91.80
21493;DHT22;10908;50.690;4.400;2022-12-05T06:35:42;2.20;91.70
21493;DHT22;10908;50.690;4.400;2022-12-05T06:38:09;2.20;91.70
21493;DHT22;10908;50.690;4.400;2022-12-05T06:40:39;2.20;91.70
21493;DHT22;10908;50.690;4.400;2022-12-05T06:43:05;2.20;91.70
21493;DHT22;10908;50.690;4.400;2022-12-05T06:45:31;2.30;91.60
21493;DHT22;10908;50.690;4.400;2022-12-05T06:47:56;2.30;91.50
21493;DHT22;10908;50.690;4.400;2022-12-05T06:50:22;2.40;91.60
21493;DHT22;10908;50.690;4.400;2022-12-05T06:52:49;2.50;91.50
21493;DHT22;10908;50.690;4.400;2022-12-05T06:55:15;2.40;91.50
21493;DHT22;10908;50.690;4.400;2022-12-05T06:57:40;2.30;91.30
21493;DHT22;10908;50.690;4.400;2022-12-05T07:00:07;2.10;91.10
21493;DHT22;10908;50.690;4.400;2022-12-05T07:02:52;2.20;91.10
21493;DHT22;10908;50.690;4.400;2022-12-05T07:05:18;2.20;91.20
21493;DHT22;10908;50.690;4.400;2022-12-05T07:07:44;2.30;91.20
21493;DHT22;10908;50.690;4.400;2022-12-05T07:10:10;2.40;91.10
21493;DHT22;10908;50.690;4.400;2022-12-05T07:12:36;2.30;91.10
21493;DHT22;10908;50.690;4.400;2022-12-05T07:15:02;2.20;90.90
21493;DHT22;10908;50.690;4.400;2022-12-05T07:17:28;2.20;90.90
21493;DHT22;10908;50.690;4.400;2022-12-05T07:19:54;2.10;90.90
21493;DHT22;10908;50.690;4.400;2022-12-05T07:22:21;2.10;90.90
21493;DHT22;10908;50.690;4.400;2022-12-05T07:24:47;2.20;91.10
21493;DHT22;10908;50.690;4.400;2022-12-05T07:27:14;2.20;91.10
21493;DHT22;10908;50.690;4.400;2022-12-05T07:29:40;2.20;91.10
21493;DHT22;10908;50.690;4.400;2022-12-05T07:32:06;2.30;91.00
21493;DHT22;10908;50.690;4.400;2022-12-05T07:34:32;2.30;90.90
21493;DHT22;10908;50.690;4.400;2022-12-05T07:36:59;2.40;90.90
21493;DHT22;10908;50.690;4.400;2022-12-05T07:39:24;2.60;90.90
21493;DHT22;10908;50.690;4.400;2022-12-05T07:41:50;2.50;90.80
21493;DHT22;10908;50.690;4.400;2022-12-05T07:44:16;2.90;90.40
21493;DHT22;10908;50.690;4.400;2022-12-05T07:46:42;3.20;89.80
21493;DHT22;10908;50.690;4.400;2022-12-05T07:49:08;3.30;88.90
21493;DHT22;10908;50.690;4.400;2022-12-05T07:51:34;3.30;88.40
21493;DHT22;10908;50.690;4.400;2022-12-05T07:54:00;3.50;87.60
21493;DHT22;10908;50.690;4.400;2022-12-05T07:56:26;3.50;86.80
21493;DHT22;10908;50.690;4.400;2022-12-05T07:58:52;3.30;86.80
21493;DHT22;10908;50.690;4.400;2022-12-05T08:01:23;3.30;86.60
21493;DHT22;10908;50.690;4.400;2022-12-05T08:03:51;3.00;86.70
21493;DHT22;10908;50.690;4.400;2022-12-05T08:06:19;2.80;87.10
21493;DHT22;10908;50.690;4.400;2022-12-05T08:08:46;2.60;87.60
21493;DHT22;10908;50.690;4.400;2022-12-05T08:11:27;2.60;88.10
21493;DHT22;10908;50.690;4.400;2022-12-05T08:13:55;2.80;88.40
21493;DHT22;10908;50.690;4.400;2022-12-05T08:16:24;3.00;88.10
21493;DHT22;10908;50.690;4.400;2022-12-05T08:19:02;2.80;88.10
21493;DHT22;10908;50.690;4.400;2022-12-05T08:21:28;2.90;88.20
21493;DHT22;10908;50.690;4.400;2022-12-05T08:23:54;2.90;88.20
21493;DHT22;10908;50.690;4.400;2022-12-05T08:26:25;2.90;88.30
21493;DHT22;10908;50.690;4.400;2022-12-05T08:28:53;3.10;88.10
21493;DHT22;10908;50.690;4.400;2022-12-05T08:31:21;3.30;87.70
21493;DHT22;10908;50.690;4.400;2022-12-05T08:33:48;3.30;87.20
21493;DHT22;10908;50.690;4.400;2022-12-05T08:36:14;3.00;87.20
21493;DHT22;10908;50.690;4.400;2022-12-05T08:38:40;2.80;87.50
21493;DHT22;10908;50.690;4.400;2022-12-05T08:41:09;2.80;87.80
21493;DHT22;10908;50.690;4.400;2022-12-05T08:43:36;2.80;88.00
21493;DHT22;10908;50.690;4.400;2022-12-05T08:46:02;2.80;88.30
21493;DHT22;10908;50.690;4.400;2022-12-05T08:48:30;2.70;88.60
21493;DHT22;10908;50.690;4.400;2022-12-05T08:50:57;2.70;88.70
21493;DHT22;10908;50.690;4.400;2022-12-05T08:53:23;2.70;88.90
21493;DHT22;10908;50.690;4.400;2022-12-05T08:55:49;2.60;89.00
21493;DHT22;10908;50.690;4.400;2022-12-05T08:58:15;2.80;89.20
21493;DHT22;10908;50.690;4.400;2022-12-05T09:00:41;2.80;89.20
21493;DHT22;10908;50.690;4.400;2022-12-05T09:03:09;2.90;89.10
21493;DHT22;10908;50.690;4.400;2022-12-05T09:05:35;2.90;88.90
21493;DHT22;10908;50.690;4.400;2022-12-05T09:08:00;2.70;88.90
21493;DHT22;10908;50.690;4.400;2022-12-05T09:10:26;3.00;88.80
21493;DHT22;10908;50.690;4.400;2022-12-05T09:12:52;3.30;88.40
21493;DHT22;10908;50.690;4.400;2022-12-05T09:15:18;3.10;88.00
21493;DHT22;10908;50.690;4.400;2022-12-05T09:17:44;3.10;88.10
21493;DHT22;10908;50.690;4.400;2022-12-05T09:20:10;3.20;88.10
21493;DHT22;10908;50.690;4.400;2022-12-05T09:22:39;3.40;88.00
21493;DHT22;10908;50.690;4.400;2022-12-05T09:25:05;3.60;87.40
21493;DHT22;10908;50.690;4.400;2022-12-05T09:27:31;3.80;86.70
21493;DHT22;10908;50.690;4.400;2022-12-05T09:29:56;3.90;85.90
21493;DHT22;10908;50.690;4.400;2022-12-05T09:32:22;3.90;85.70
21493;DHT22;10908;50.690;4.400;2022-12-05T09:34:48;3.70;85.70
21493;DHT22;10908;50.690;4.400;2022-12-05T09:37:13;3.70;86.00
21493;DHT22;10908;50.690;4.400;2022-12-05T09:39:39;3.80;86.00
21493;DHT22;10908;50.690;4.400;2022-12-05T09:45:21;3.60;85.90
21493;DHT22;10908;50.690;4.400;2022-12-05T09:47:52;3.40;86.60
21493;DHT22;10908;50.690;4.400;2022-12-05T09:53:35;3.50;87.20
21493;DHT22;10908;50.690;4.400;2022-12-05T10:01:26;4.00;86.20
21493;DHT22;10908;50.690;4.400;2022-12-05T10:18:34;4.20;85.40
21493;DHT22;10908;50.690;4.400;2022-12-05T10:20:35;4.20;85.60
21493;DHT22;10908;50.690;4.400;2022-12-05T10:23:13;4.10;85.80
21493;DHT22;10908;50.690;4.400;2022-12-05T10:25:40;4.10;86.10
21493;DHT22;10908;50.690;4.400;2022-12-05T10:28:15;4.30;85.70
21493;DHT22;10908;50.690;4.400;2022-12-05T10:30:44;4.10;85.60
21493;DHT22;10908;50.690;4.400;2022-12-05T10:33:18;4.30;85.30
21493;DHT22;10908;50.690;4.400;2022-12-05T10:35:45;4.10;85.40
21493;DHT22;10908;50.690;4.400;2022-12-05T10:38:28;4.00;85.80
21493;DHT22;10908;50.690;4.400;2022-12-05T10:40:58;3.80;86.40
21493;DHT22;10908;50.690;4.400;2022-12-05T10:43:29;3.70;86.90
21493;DHT22;10908;50.690;4.400;2022-12-05T10:45:56;3.90;87.30
21493;DHT22;10908;50.690;4.400;2022-12-05T10:48:23;3.80;87.30
21493;DHT22;10908;50.690;4.400;2022-12-05T10:50:50;3.70;87.50
21493;DHT22;10908;50.690;4.400;2022-12-05T10:53:22;3.70;87.90
21493;DHT22;10908;50.690;4.400;2022-12-05T10:55:49;3.80;88.10
21493;DHT22;10908;50.690;4.400;2022-12-05T11:00:51;4.10;87.60
21493;DHT22;10908;50.690;4.400;2022-12-05T11:03:30;4.10;87.30
21493;DHT22;10908;50.690;4.400;2022-12-05T11:06:00;4.30;87.00
21493;DHT22;10908;50.690;4.400;2022-12-05T11:08:29;4.20;86.30
21493;DHT22;10908;50.690;4.400;2022-12-05T11:11:09;4.20;86.30
21493;DHT22;10908;50.690;4.400;2022-12-05T11:14:24;4.20;86.10
21493;DHT22;10908;50.690;4.400;2022-12-05T11:16:55;4.10;85.90
21493;DHT22;10908;50.690;4.400;2022-12-05T11:21:53;4.20;85.60
21493;DHT22;10908;50.690;4.400;2022-12-05T11:24:34;4.00;85.40
21493;DHT22;10908;50.690;4.400;2022-12-05T11:27:25;4.20;85.40
21493;DHT22;10908;50.690;4.400;2022-12-05T11:29:58;4.00;85.40
21493;DHT22;10908;50.690;4.400;2022-12-05T11:32:27;3.90;85.90
21493;DHT22;10908;50.690;4.400;2022-12-05T11:37:29;3.90;85.50
21493;DHT22;10908;50.690;4.400;2022-12-05T11:39:56;3.60;85.80
21493;DHT22;10908;50.690;4.400;2022-12-05T11:42:38;3.80;86.30
21493;DHT22;10908;50.690;4.400;2022-12-05T11:48:11;4.10;86.00
21493;DHT22;10908;50.690;4.400;2022-12-05T12:05:18;4.50;84.70
21493;DHT22;10908;50.690;4.400;2022-12-05T12:14:02;4.20;84.50
21493;DHT22;10908;50.690;4.400;2022-12-05T12:16:51;4.30;85.20
21493;DHT22;10908;50.690;4.400;2022-12-05T12:30:08;4.50;84.40
21493;DHT22;10908;50.690;4.400;2022-12-05T12:32:57;4.50;84.50
21493;DHT22;10908;50.690;4.400;2022-12-05T12:35:30;4.70;84.10
21493;DHT22;10908;50.690;4.400;2022-12-05T12:41:52;4.70;83.90
21493;DHT22;10908;50.690;4.400;2022-12-05T12:43:55;4.70;84.10
21493;DHT22;10908;50.690;4.400;2022-12-05T12:49:45;4.40;84.50
21493;DHT22;10908;50.690;4.400;2022-12-05T12:52:21;4.20;85.10
21493;DHT22;10908;50.690;4.400;2022-12-05T12:58:20;4.40;85.30
21493;DHT22;10908;50.690;4.400;2022-12-05T13:03:31;4.50;85.30
21493;DHT22;10908;50.690;4.400;2022-12-05T13:11:08;4.60;85.60
21493;DHT22;10908;50.690;4.400;2022-12-05T13:13:45;4.70;85.50
21493;DHT22;10908;50.690;4.400;2022-12-05T13:16:15;4.60;85.40
21493;DHT22;10908;50.690;4.400;2022-12-05T13:18:45;4.60;85.60
21493;DHT22;10908;50.690;4.400;2022-12-05T13:21:11;4.70;85.30
21493;DHT22;10908;50.690;4.400;2022-12-05T13:23:49;4.60;85.50
21493;DHT22;10908;50.690;4.400;2022-12-05T13:26:16;4.90;85.10
21493;DHT22;10908;50.690;4.400;2022-12-05T13:28:56;4.90;85.00
21493;DHT22;10908;50.690;4.400;2022-12-05T13:31:36;4.80;85.00
21493;DHT22;10908;50.690;4.400;2022-12-05T13:34:03;4.80;85.10
21493;DHT22;10908;50.690;4.400;2022-12-05T13:36:40;4.60;85.50
21493;DHT22;10908;50.690;4.400;2022-12-05T13:39:24;4.70;85.80
21493;DHT22;10908;50.690;4.400;2022-12-05T13:42:25;4.60;86.20
21493;DHT22;10908;50.690;4.400;2022-12-05T13:44:57;4.40;86.50
21493;DHT22;10908;50.690;4.400;2022-12-05T13:52:29;4.30;88.00
21493;DHT22;10908;50.690;4.400;2022-12-05T13:55:03;4.20;88.10
21493;DHT22;10908;50.690;4.400;2022-12-05T14:07:50;4.80;86.80
21493;DHT22;10908;50.690;4.400;2022-12-05T14:10:22;4.80;86.80
21493;DHT22;10908;50.690;4.400;2022-12-05T14:12:56;4.90;86.50
21493;DHT22;10908;50.690;4.400;2022-12-05T14:15:38;4.70;86.40
21493;DHT22;10908;50.690;4.400;2022-12-05T14:18:32;4.60;86.70
21493;DHT22;10908;50.690;4.400;2022-12-05T14:21:34;4.50;87.30
21493;DHT22;10908;50.690;4.400;2022-12-05T14:24:26;4.50;87.60
21493;DHT22;10908;50.690;4.400;2022-12-05T14:27:03;4.40;87.90
21493;DHT22;10908;50.690;4.400;2022-12-05T14:30:03;4.30;88.20
21493;DHT22;10908;50.690;4.400;2022-12-05T14:32:39;4.10;88.50
21493;DHT22;10908;50.690;4.400;2022-12-05T14:35:40;4.00;88.70
21493;DHT22;10908;50.690;4.400;2022-12-05T14:38:16;4.00;89.10
21493;DHT22;10908;50.690;4.400;2022-12-05T14:40:43;4.00;89.40
21493;DHT22;10908;50.690;4.400;2022-12-05T14:43:18;3.90;89.40
21493;DHT22;10908;50.690;4.400;2022-12-05T14:55:43;4.20;88.60
21493;DHT22;10908;50.690;4.400;2022-12-05T14:58:18;4.30;88.50
21493;DHT22;10908;50.690;4.400;2022-12-05T15:00:56;4.40;88.40
21493;DHT22;10908;50.690;4.400;2022-12-05T15:03:37;4.50;88.00
21493;DHT22;10908;50.690;4.400;2022-12-05T15:06:05;4.70;87.80
21493;DHT22;10908;50.690;4.400;2022-12-05T15:08:44;4.90;87.50
21493;DHT22;10908;50.690;4.400;2022-12-05T15:11:19;4.80;87.00
21493;DHT22;10908;50.690;4.400;2022-12-05T15:14:17;5.00;86.80
21493;DHT22;10908;50.690;4.400;2022-12-05T15:16:45;4.90;86.30
21493;DHT22;10908;50.690;4.400;2022-12-05T15:19:37;5.10;86.20
21493;DHT22;10908;50.690;4.400;2022-12-05T15:22:08;5.00;86.00
21493;DHT22;10908;50.690;4.400;2022-12-05T15:24:37;4.90;86.10
21493;DHT22;10908;50.690;4.400;2022-12-05T15:27:04;4.70;86.60
21493;DHT22;10908;50.690;4.400;2022-12-05T15:29:30;4.60;87.10
21493;DHT22;10908;50.690;4.400;2022-12-05T15:32:00;4.60;87.50
21493;DHT22;10908;50.690;4.400;2022-12-05T15:37:55;4.50;88.00
21493;DHT22;10908;50.690;4.400;2022-12-05T15:40:23;4.40;88.30
21493;DHT22;10908;50.690;4.400;2022-12-05T15:56:12;4.80;87.70
21493;DHT22;10908;50.690;4.400;2022-12-05T15:58:48;4.40;88.50
21493;DHT22;10908;50.690;4.400;2022-12-05T16:01:23;4.30;89.00
21493;DHT22;10908;50.690;4.400;2022-12-05T16:03:59;4.30;89.30
21493;DHT22;10908;50.690;4.400;2022-12-05T16:06:47;4.70;89.20
21493;DHT22;10908;50.690;4.400;2022-12-05T16:09:25;4.80;88.90
21493;DHT22;10908;50.690;4.400;2022-12-05T16:12:00;4.80;88.70
21493;DHT22;10908;50.690;4.400;2022-12-05T16:14:36;4.60;88.80
21493;DHT22;10908;50.690;4.400;2022-12-05T16:17:04;4.40;89.00
21493;DHT22;10908;50.690;4.400;2022-12-05T16:19:32;4.30;89.40
21493;DHT22;10908;50.690;4.400;2022-12-05T16:24:34;4.20;90.00
21493;DHT22;10908;50.690;4.400;2022-12-05T16:30:19;4.10;90.40
21493;DHT22;10908;50.690;4.400;2022-12-05T16:32:49;4.30;90.60
21493;DHT22;10908;50.690;4.400;2022-12-05T16:35:48;4.30;90.60
21493;DHT22;10908;50.690;4.400;2022-12-05T16:38:25;4.20;90.70
21493;DHT22;10908;50.690;4.400;2022-12-05T16:40:59;4.20;90.80
21493;DHT22;10908;50.690;4.400;2022-12-05T16:45:57;4.40;90.90
21493;DHT22;10908;50.690;4.400;2022-12-05T16:48:27;4.50;90.80
21493;DHT22;10908;50.690;4.400;2022-12-05T16:53:42;4.40;90.60
21493;DHT22;10908;50.690;4.400;2022-12-05T16:59:16;4.50;90.60
21493;DHT22;10908;50.690;4.400;2022-12-05T17:01:44;4.80;90.30
21493;DHT22;10908;50.690;4.400;2022-12-05T17:04:10;4.90;90.00
21493;DHT22;10908;50.690;4.400;2022-12-05T17:06:36;4.80;89.70
21493;DHT22;10908;50.690;4.400;2022-12-05T17:09:01;4.80;89.50
21493;DHT22;10908;50.690;4.400;2022-12-05T17:11:30;4.70;89.40
21493;DHT22;10908;50.690;4.400;2022-12-05T17:13:57;4.60;89.40
21493;DHT22;10908;50.690;4.400;2022-12-05T17:16:23;4.60;89.50
21493;DHT22;10908;50.690;4.400;2022-12-05T17:18:51;4.50;89.60
21493;DHT22;10908;50.690;4.400;2022-12-05T17:21:19;4.40;89.80
21493;DHT22;10908;50.690;4.400;2022-12-05T17:23:48;4.70;89.70
21493;DHT22;10908;50.690;4.400;2022-12-05T17:26:18;4.80;89.50
21493;DHT22;10908;50.690;4.400;2022-12-05T17:28:44;4.90;89.30
21493;DHT22;10908;50.690;4.400;2022-12-05T17:31:16;5.00;89.20
21493;DHT22;10908;50.690;4.400;2022-12-05T17:33:43;4.90;89.10
21493;DHT22;10908;50.690;4.400;2022-12-05T17:36:10;4.80;89.10
21493;DHT22;10908;50.690;4.400;2022-12-05T17:38:36;4.80;89.10
21493;DHT22;10908;50.690;4.400;2022-12-05T17:41:01;4.90;89.10
21493;DHT22;10908;50.690;4.400;2022-12-05T17:43:27;4.80;89.10
21493;DHT22;10908;50.690;4.400;2022-12-05T17:45:52;4.90;89.00
21493;DHT22;10908;50.690;4.400;2022-12-05T17:48:19;4.90;89.10
21493;DHT22;10908;50.690;4.400;2022-12-05T17:50:46;5.00;89.00
21493;DHT22;10908;50.690;4.400;2022-12-05T17:53:14;4.90;89.00
21493;DHT22;10908;50.690;4.400;2022-12-05T17:55:40;4.80;89.00
21493;DHT22;10908;50.690;4.400;2022-12-05T17:58:07;4.80;89.20
21493;DHT22;10908;50.690;4.400;2022-12-05T18:00:32;4.70;89.20
21493;DHT22;10908;50.690;4.400;2022-12-05T18:02:58;4.70;89.50
21493;DHT22;10908;50.690;4.400;2022-12-05T18:05:23;4.70;89.50
21493;DHT22;10908;50.690;4.400;2022-12-05T18:07:50;4.70;89.60
21493;DHT22;10908;50.690;4.400;2022-12-05T18:10:18;4.70;89.80
21493;DHT22;10908;50.690;4.400;2022-12-05T18:12:44;4.80;89.80
21493;DHT22;10908;50.690;4.400;2022-12-05T18:15:11;4.80;89.90
21493;DHT22;10908;50.690;4.400;2022-12-05T18:17:36;4.80;89.80
21493;DHT22;10908;50.690;4.400;2022-12-05T18:20:04;4.80;89.60
21493;DHT22;10908;50.690;4.400;2022-12-05T18:22:30;4.80;89.70
21493;DHT22;10908;50.690;4.400;2022-12-05T18:24:55;4.80;89.70
21493;DHT22;10908;50.690;4.400;2022-12-05T18:27:22;4.70;89.80
21493;DHT22;10908;50.690;4.400;2022-12-05T18:29:49;4.70;89.90
21493;DHT22;10908;50.690;4.400;2022-12-05T18:32:15;4.70;89.90
21493;DHT22;10908;50.690;4.400;2022-12-05T18:34:40;4.80;90.00
21493;DHT22;10908;50.690;4.400;2022-12-05T18:37:06;4.70;90.10
21493;DHT22;10908;50.690;4.400;2022-12-05T18:39:32;4.80;90.10
21493;DHT22;10908;50.690;4.400;2022-12-05T18:41:57;4.90;90.10
21493;DHT22;10908;50.690;4.400;2022-12-05T18:44:23;5.00;90.00
21493;DHT22;10908;50.690;4.400;2022-12-05T18:46:48;5.00;89.80
21493;DHT22;10908;50.690;4.400;2022-12-05T18:49:14;4.90;89.70
21493;DHT22;10908;50.690;4.400;2022-12-05T18:51:40;4.90;89.80
21493;DHT22;10908;50.690;4.400;2022-12-05T18:54:06;5.00;89.70
21493;DHT22;10908;50.690;4.400;2022-12-05T18:56:34;5.00;89.70
21493;DHT22;10908;50.690;4.400;2022-12-05T18:59:02;4.90;89.70
21493;DHT22;10908;50.690;4.400;2022-12-05T19:01:29;5.00;89.70
21493;DHT22;10908;50.690;4.400;2022-12-05T19:03:56;5.00;89.60
21493;DHT22;10908;50.690;4.400;2022-12-05T19:06:24;4.90;89.70
21493;DHT22;10908;50.690;4.400;2022-12-05T19:08:54;4.90;89.70